LELN/LEN METAR and TAF weather

Enter ICAO airport designator
Station Type Date Time Source
LELN METAR 2022/05/26 04:00 UTC NOAA

LELN 260400Z AUTO VRB02KT 9000 NCD 04/03 Q1027


Station Type Date Time Source
LELN Decoded METAR 2022/05/26 04:00 UTC NOAA

Leon / Virgen Del Camino, Spain (LELN) 42-35N 005-39W 914M
May 26, 2022 - 12:00 AM EDT / 2022.05.26 0400 UTC
Wind: Variable at 2 MPH (2 KT):0
Visibility: 5 mile(s):0
Temperature: 39 F (4 C)
Dew Point: 37 F (3 C)
Relative Humidity: 93%
Pressure (altimeter): 30.33 in. Hg (1027 hPa)
ob: LELN 260400Z AUTO VRB02KT 9000 NCD 04/03 Q1027
cycle: 4

Station Type Date Time Source
LELN TAF 2022/05/26 03:27 UTC NOAA

TAF LELN 260200Z 2603/2703 VRB03KT CAVOK TX26/2615Z TN03/2605Z
TEMPO 2616/2619 01010KT

Example: see airport list